createdAt,value
2022-11-15T00:05:08.733Z,9.27
2022-11-15T00:11:28.802Z,8.15
2022-11-15T00:17:51.625Z,7.65
2022-11-15T00:24:12.129Z,7.03
2022-11-15T00:30:32.382Z,7.72
2022-11-15T00:36:52.534Z,7.20
2022-11-15T00:43:12.912Z,7.22
2022-11-15T00:49:33.221Z,7.63
2022-11-15T00:55:53.424Z,7.97
2022-11-15T01:02:13.663Z,7.50
2022-11-15T01:08:33.861Z,7.07
2022-11-15T01:14:53.965Z,7.72
2022-11-15T01:21:16.237Z,6.28
2022-11-15T01:27:36.602Z,6.63
2022-11-15T01:33:56.898Z,6.30
2022-11-15T01:40:17.184Z,7.00
2022-11-15T01:46:38.731Z,6.90
2022-11-15T01:52:58.770Z,6.68
2022-11-15T01:59:19.204Z,5.73
2022-11-15T02:05:39.141Z,6.38
2022-11-15T02:12:00.229Z,6.77
2022-11-15T02:18:25.330Z,6.32
2022-11-15T02:24:57.101Z,6.90
2022-11-15T02:31:29.414Z,6.20
2022-11-15T02:37:53.902Z,6.35
2022-11-15T02:44:29.971Z,6.13
2022-11-15T02:50:50.451Z,5.95
2022-11-15T02:57:15.510Z,5.97
2022-11-15T03:03:41.789Z,5.67
2022-11-15T03:10:13.658Z,6.03
2022-11-15T03:16:36.506Z,5.90
2022-11-15T03:22:57.873Z,6.22
2022-11-15T03:29:23.194Z,5.65
2022-11-15T03:35:45.455Z,5.17
2022-11-15T03:42:14.393Z,6.15
2022-11-15T03:48:36.693Z,6.03
2022-11-15T03:54:57.543Z,5.80
2022-11-15T04:01:17.795Z,5.85
2022-11-15T04:07:38.040Z,5.87
2022-11-15T04:13:58.279Z,5.63
2022-11-15T04:20:38.786Z,5.83
2022-11-15T04:26:59.322Z,5.30
2022-11-15T04:33:19.794Z,5.70
2022-11-15T04:39:40.714Z,5.10
2022-11-15T04:46:00.563Z,5.47
2022-11-15T04:52:20.520Z,6.17
2022-11-15T04:58:40.868Z,5.43
2022-11-15T05:05:01.027Z,5.65
2022-11-15T05:11:21.546Z,5.47
2022-11-15T05:17:41.691Z,5.22
2022-11-15T05:24:01.940Z,5.50
2022-11-15T05:30:21.937Z,5.90
2022-11-15T05:36:43.123Z,5.63
2022-11-15T05:43:04.740Z,5.97
2022-11-15T05:49:28.047Z,6.20
2022-11-15T05:55:48.461Z,5.93
2022-11-15T06:02:08.397Z,5.22
2022-11-15T06:08:28.565Z,5.47
2022-11-15T06:14:48.699Z,5.97
2022-11-15T06:21:09.910Z,5.70
2022-11-15T06:27:30.118Z,5.73
2022-11-15T06:33:50.581Z,5.53
2022-11-15T06:40:11.895Z,5.80
2022-11-15T06:46:31.871Z,5.53
2022-11-15T06:52:52.185Z,5.93
2022-11-15T06:59:12.560Z,6.10
2022-11-15T07:05:33.087Z,6.30
2022-11-15T07:11:52.995Z,5.20
2022-11-15T07:18:13.179Z,5.33
2022-11-15T07:24:33.608Z,5.40
2022-11-15T07:30:54.095Z,5.90
2022-11-15T07:37:14.367Z,5.50
2022-11-15T07:43:35.098Z,5.80
2022-11-15T07:49:55.749Z,5.60
2022-11-15T07:56:15.944Z,5.47
2022-11-15T08:02:36.065Z,5.03
2022-11-15T08:08:56.146Z,5.63
2022-11-15T08:15:16.540Z,5.32
2022-11-15T08:21:36.733Z,5.03
2022-11-15T08:27:57.732Z,4.78
2022-11-15T08:34:17.603Z,5.30
2022-11-15T08:40:38.250Z,4.60
2022-11-15T08:46:58.437Z,4.70
2022-11-15T08:53:18.883Z,4.80
2022-11-15T08:59:39.181Z,4.45
2022-11-15T09:06:00.137Z,4.83
2022-11-15T09:12:19.972Z,4.47
2022-11-15T09:18:40.070Z,4.53
2022-11-15T09:25:00.208Z,4.20
2022-11-15T09:31:22.196Z,4.43
2022-11-15T09:37:42.448Z,4.30
2022-11-15T09:44:08.614Z,4.03
2022-11-15T09:50:47.731Z,4.15
2022-11-15T09:56:49.736Z,3.77
2022-11-15T10:03:10.158Z,4.07
2022-11-15T10:09:25.098Z,3.73
2022-11-15T10:15:26.687Z,3.35
2022-11-15T10:21:47.138Z,3.30
2022-11-15T10:27:52.650Z,3.43
2022-11-15T10:34:17.399Z,3.80
2022-11-15T10:40:20.983Z,3.97
2022-11-15T10:52:46.509Z,3.20
2022-11-15T10:58:53.018Z,3.47
2022-11-15T11:04:54.638Z,3.08
2022-11-15T11:11:03.270Z,3.40
2022-11-15T11:17:09.800Z,3.15
2022-11-15T11:23:27.766Z,2.92
2022-11-15T11:29:47.465Z,3.00
2022-11-15T11:35:52.526Z,3.03
2022-11-15T11:41:57.164Z,3.70
2022-11-15T11:48:15.073Z,3.30
2022-11-15T11:54:36.865Z,3.30
2022-11-15T12:00:50.369Z,3.50
2022-11-15T12:06:58.983Z,3.45
2022-11-15T12:13:14.319Z,2.93
2022-11-15T12:19:15.913Z,2.80
2022-11-15T12:25:26.607Z,3.30
2022-11-15T12:31:33.707Z,2.83
2022-11-15T12:37:41.527Z,2.83
2022-11-15T12:43:43.785Z,2.70
2022-11-15T12:49:46.327Z,2.63
2022-11-15T12:56:07.744Z,2.60
2022-11-15T13:02:18.945Z,2.70
2022-11-15T13:08:39.805Z,2.85
2022-11-15T13:14:42.947Z,2.73
2022-11-15T13:20:45.909Z,2.72
2022-11-15T13:26:47.487Z,2.63
2022-11-15T13:32:49.494Z,2.63
2022-11-15T13:38:59.886Z,2.60
2022-11-15T13:45:03.102Z,2.60
2022-11-15T13:51:06.336Z,2.72
2022-11-15T13:57:17.387Z,2.40
2022-11-15T14:03:20.667Z,2.60
2022-11-15T14:09:29.954Z,2.90
2022-11-15T14:15:33.547Z,3.17
2022-11-15T14:21:35.013Z,2.90
2022-11-15T14:27:36.745Z,3.03
2022-11-15T14:33:38.449Z,3.53
2022-11-15T14:39:39.902Z,3.85
2022-11-15T14:45:41.818Z,4.03
2022-11-15T14:51:43.260Z,4.47
2022-11-15T14:57:44.712Z,4.78
2022-11-15T15:03:46.361Z,3.87
2022-11-15T15:09:48.031Z,3.58
2022-11-15T15:15:50.316Z,3.87
2022-11-15T15:21:51.866Z,3.70
2022-11-15T15:27:53.703Z,3.85
2022-11-15T15:33:55.194Z,3.90
2022-11-15T15:39:57.493Z,4.20
2022-11-15T15:45:59.604Z,4.70
2022-11-15T15:52:01.097Z,4.60
2022-11-15T15:58:02.592Z,4.20
2022-11-15T16:04:04.086Z,6.17
2022-11-15T16:10:20.692Z,5.53
2022-11-15T16:16:23.004Z,5.50
2022-11-15T16:22:24.517Z,5.60
2022-11-15T16:28:27.571Z,5.68
2022-11-15T16:34:32.230Z,5.90
2022-11-15T16:40:36.114Z,5.60
2022-11-15T16:46:38.726Z,5.37
2022-11-15T16:52:40.286Z,6.03
2022-11-15T16:58:41.891Z,6.18
2022-11-15T17:04:43.347Z,5.93
2022-11-15T17:10:44.847Z,7.03
2022-11-15T17:16:46.855Z,7.50
2022-11-15T17:22:48.612Z,8.70
2022-11-15T17:28:54.249Z,8.93
2022-11-15T17:34:56.053Z,9.10
2022-11-15T17:41:09.371Z,9.23
2022-11-15T17:47:10.905Z,9.97
2022-11-15T17:53:12.423Z,10.05
2022-11-15T17:59:18.571Z,14.13
2022-11-15T18:05:22.798Z,16.20
2022-11-15T18:11:28.933Z,17.75
2022-11-15T18:17:30.534Z,16.00
2022-11-15T18:23:33.167Z,14.25
2022-11-15T18:29:37.545Z,14.02
2022-11-15T18:35:39.307Z,14.00
2022-11-15T18:41:40.802Z,16.10
2022-11-15T18:47:42.406Z,125.00
2022-11-15T18:53:44.373Z,300.52
2022-11-15T18:59:45.878Z,338.80
2022-11-15T19:05:47.462Z,407.20
2022-11-15T19:11:51.421Z,198.32
2022-11-15T19:17:54.316Z,25.97
2022-11-15T19:23:55.908Z,15.95
2022-11-15T19:29:57.757Z,15.13
2022-11-15T19:36:00.033Z,13.57
2022-11-15T19:42:01.629Z,18.77
2022-11-15T19:48:03.346Z,20.40
2022-11-15T19:54:09.688Z,16.23
2022-11-15T20:00:11.396Z,17.35
2022-11-15T20:06:17.983Z,17.73
2022-11-15T20:12:19.477Z,14.35
2022-11-15T20:18:21.546Z,13.80
2022-11-15T20:24:23.054Z,14.63
2022-11-15T20:30:25.892Z,13.35
2022-11-15T20:36:27.974Z,14.37
2022-11-15T20:42:29.987Z,12.75
2022-11-15T20:48:32.021Z,13.20
2022-11-15T20:54:33.877Z,13.05
2022-11-15T21:00:36.863Z,11.98
2022-11-15T21:06:38.365Z,11.40
2022-11-15T21:12:39.859Z,12.93
2022-11-15T21:18:41.450Z,12.77
2022-11-15T21:24:43.096Z,12.90
2022-11-15T21:30:57.531Z,12.70
2022-11-15T21:36:59.118Z,12.87
2022-11-15T21:43:00.571Z,11.90
2022-11-15T21:49:02.034Z,12.27
2022-11-15T21:55:03.657Z,11.13
2022-11-15T22:01:24.425Z,10.05
2022-11-15T22:07:26.036Z,9.80
2022-11-15T22:13:27.798Z,10.68
2022-11-15T22:19:29.530Z,10.07
2022-11-15T22:25:31.329Z,10.25
2022-11-15T22:31:32.834Z,10.10
2022-11-15T22:37:34.376Z,10.47
2022-11-15T22:43:36.162Z,9.40
2022-11-15T22:49:37.608Z,9.40
2022-11-15T22:55:39.746Z,8.90
2022-11-15T23:01:41.225Z,9.23
2022-11-15T23:07:42.764Z,8.50
2022-11-15T23:13:44.225Z,8.23
2022-11-15T23:19:45.845Z,8.20
2022-11-15T23:25:47.334Z,7.57
2022-11-15T23:32:07.888Z,8.25
2022-11-15T23:38:09.509Z,9.63
2022-11-15T23:44:11.032Z,8.90
2022-11-15T23:50:12.518Z,8.70
2022-11-15T23:56:14.970Z,8.13
